Time;durP1;ratioP1;P1;durP2;ratioP2;P2;SDS_P1;SDS_P2;PMS_P1;PMS_P2;Temp;Humidity;BMP_temperature;BMP_pressure;BME280_temperature;BME280_humidity;BME280_pressure;Samples;Min_cycle;Max_cycle;Signal;HPM_P1;HPM_P2
2021/08/23 00:00:09;;;;;;;;;6.25;5.25;;;;;20.42;100.00;102050.63;5090929;27;48297;-68
2021/08/23 00:02:35;;;;;;;;;5.25;5.00;;;;;20.48;100.00;102054.84;5078010;27;45413;-68
2021/08/23 00:05:01;;;;;;;;;6.00;5.00;;;;;20.46;100.00;102052.25;5078508;27;45449;-69
2021/08/23 00:07:26;;;;;;;;;4.00;4.00;;;;;20.40;100.00;102048.91;5092938;27;45333;-69
2021/08/23 00:09:51;;;;;;;;;6.50;5.00;;;;;20.48;100.00;102057.50;5078451;27;46157;-68
2021/08/23 00:12:17;;;;;;;;;4.00;4.00;;;;;20.49;100.00;102053.91;5078128;27;45430;-68
2021/08/23 00:14:42;;;;;;;;;5.00;5.00;;;;;20.45;100.00;102041.69;5078565;27;45446;-68
2021/08/23 00:17:08;;;;;;;;;6.50;5.00;;;;;20.48;100.00;102061.00;5078586;27;45427;-68
2021/08/23 00:19:33;;;;;;;;;6.00;4.50;;;;;20.46;100.00;102054.03;5077656;27;45438;-68
2021/08/23 00:22:11;;;;;;;;;5.75;5.75;;;;;20.44;100.00;102055.88;5089418;27;45440;-68
2021/08/23 00:24:37;;;;;;;;;5.75;4.00;;;;;20.45;100.00;102065.56;5084073;27;45315;-68
2021/08/23 00:27:02;;;;;;;;;5.75;5.50;;;;;20.38;100.00;102046.31;5088089;27;45326;-68
2021/08/23 00:29:28;;;;;;;;;4.25;3.75;;;;;20.32;100.00;102032.38;5091890;27;46360;-68
2021/08/23 00:31:53;;;;;;;;;3.25;3.25;;;;;20.42;100.00;102047.97;5077978;27;45341;-68
2021/08/23 00:34:19;;;;;;;;;4.00;4.00;;;;;20.43;100.00;102051.47;5093052;27;45507;-67
2021/08/23 00:36:45;;;;;;;;;4.00;4.00;;;;;20.45;100.00;102049.66;5098617;27;45249;-68
2021/08/23 00:39:12;;;;;;;;;7.00;3.75;;;;;20.32;100.00;102019.97;5085311;27;45482;-68
2021/08/23 00:41:42;;;;;;;;;6.00;5.00;;;;;20.45;100.00;102050.50;5091992;27;45468;-67
2021/08/23 00:44:08;;;;;;;;;4.75;4.25;;;;;20.41;100.00;102043.59;5078080;27;45391;-69
2021/08/23 00:46:35;;;;;;;;;4.00;4.00;;;;;20.42;100.00;102047.09;5078224;27;45463;-68
2021/08/23 00:49:01;;;;;;;;;5.00;4.00;;;;;20.41;100.00;102048.88;5077656;27;45568;-68
2021/08/23 00:51:26;;;;;;;;;5.50;4.00;;;;;20.38;100.00;102043.66;5077426;27;45742;-68
2021/08/23 00:53:52;;;;;;;;;4.00;2.50;;;;;20.40;100.00;102040.94;5077908;27;45299;-69
2021/08/23 00:56:20;;;;;;;;;5.50;4.50;;;;;20.42;100.00;102045.31;5091654;27;45213;-68
2021/08/23 00:58:52;;;;;;;;;4.00;4.00;;;;;20.44;100.00;102042.59;5093058;27;47314;-69
2021/08/23 01:01:51;;;;;;;;;4.75;4.00;;;;;20.45;100.00;102041.69;5077424;27;45221;-68
2021/08/23 01:04:26;;;;;;;;;4.50;4.50;;;;;20.42;100.00;102040.00;5082542;27;45475;-69
2021/08/23 01:06:54;;;;;;;;;6.00;4.00;;;;;20.37;100.00;102033.97;5085412;27;45528;-68
2021/08/23 01:09:24;;;;;;;;;5.00;4.00;;;;;20.32;100.00;102024.41;5082025;27;46761;-69
2021/08/23 01:11:55;;;;;;;;;5.75;4.75;;;;;20.40;100.00;102047.16;5086220;27;45343;-68
2021/08/23 01:14:21;;;;;;;;;6.25;4.75;;;;;20.38;100.00;102043.66;5091653;27;45433;-69
2021/08/23 01:16:46;;;;;;;;;4.25;4.00;;;;;20.38;100.00;102038.34;5077823;27;45333;-69
2021/08/23 01:19:12;;;;;;;;;5.00;4.00;;;;;20.38;100.00;102037.47;5093311;27;45466;-68
2021/08/23 01:21:38;;;;;;;;;6.50;5.00;;;;;20.41;100.00;102048.03;5097537;27;45307;-68
2021/08/23 01:24:07;;;;;;;;;4.75;3.00;;;;;20.31;100.00;102031.50;5094464;27;45580;-68
2021/08/23 01:26:40;;;;;;;;;4.75;4.75;;;;;20.33;100.00;102034.97;5097550;27;45465;-68
2021/08/23 01:29:25;;;;;;;;;3.00;3.00;;;;;20.36;100.00;102052.56;5088049;27;46761;-68
2021/08/23 01:31:56;;;;;;;;;4.25;3.50;;;;;20.36;100.00;102056.06;5087957;27;45249;-68
2021/08/23 01:34:25;;;;;;;;;5.00;5.00;;;;;20.34;100.00;102049.09;5083221;27;45337;-68
2021/08/23 01:36:53;;;;;;;;;5.25;4.25;;;;;20.31;100.00;102051.84;5097733;27;45158;-69
2021/08/23 01:39:20;;;;;;;;;5.50;4.00;;;;;20.27;100.00;102045.78;5082293;27;46674;-68
2021/08/23 01:41:46;;;;;;;;;6.00;4.50;;;;;20.23;100.00;102054.78;5089182;27;45741;-69
2021/08/23 01:44:13;;;;;;;;;5.25;4.00;;;;;20.21;100.00;102047.78;5077051;27;45427;-68
2021/08/23 01:46:38;;;;;;;;;4.00;3.00;;;;;20.16;100.00;102045.28;5086290;27;45287;-68
2021/08/23 01:49:07;;;;;;;;;6.50;5.00;;;;;20.16;100.00;102045.28;5100909;27;47204;-69
2021/08/23 01:51:32;;;;;;;;;5.00;4.00;;;;;20.12;100.00;102051.59;5100862;27;45387;-68
2021/08/23 01:53:58;;;;;;;;;6.00;5.50;;;;;20.10;100.00;102053.44;5090416;27;45525;-69
2021/08/23 01:56:25;;;;;;;;;4.00;4.00;;;;;20.06;100.00;102052.66;5097558;27;45499;-69
2021/08/23 01:58:50;;;;;;;;;5.00;4.50;;;;;20.04;100.00;102051.00;5092325;27;47074;-68
2021/08/23 02:01:16;;;;;;;;;4.75;4.75;;;;;20.04;100.00;102051.84;5080175;27;45437;-68
2021/08/23 02:03:41;;;;;;;;;6.00;5.00;;;;;19.99;100.00;102051.16;5080497;27;45334;-69
2021/08/23 02:06:14;;;;;;;;;5.00;4.00;;;;;19.97;100.00;102052.13;5093020;27;45394;-68
2021/08/23 02:08:39;;;;;;;;;5.00;5.00;;;;;19.93;100.00;102055.78;5085903;27;46231;-68
2021/08/23 02:11:04;;;;;;;;;5.00;4.00;;;;;19.84;100.00;102046.31;5089606;27;45407;-69
2021/08/23 02:13:30;;;;;;;;;4.50;3.75;;;;;19.86;100.00;102050.66;5083105;27;45884;-69
2021/08/23 02:15:55;;;;;;;;;4.00;4.00;;;;;19.87;100.00;102056.81;5091958;27;45298;-69
2021/08/23 02:18:20;;;;;;;;;6.00;5.00;;;;;19.86;100.00;102057.75;5079933;27;45573;-69
2021/08/23 02:20:46;;;;;;;;;5.00;4.50;;;;;19.81;100.00;102051.72;5079954;27;45343;-69
2021/08/23 02:23:11;;;;;;;;;4.75;4.00;;;;;19.81;100.00;102057.03;5093122;27;45564;-69
2021/08/23 02:25:37;;;;;;;;;4.25;3.75;;;;;19.84;100.00;102057.78;5086003;27;45490;-69
2021/08/23 02:28:03;;;;;;;;;3.75;3.50;;;;;19.85;100.00;102069.25;5089729;27;46421;-69
2021/08/23 02:30:29;;;;;;;;;5.00;5.00;;;;;19.80;100.00;102058.81;5080992;27;45244;-69
2021/08/23 02:32:54;;;;;;;;;5.75;2.25;;;;;19.80;100.00;102053.50;5092739;27;45363;-69
2021/08/23 02:35:21;;;;;;;;;6.75;6.25;;;;;19.82;100.00;102058.75;5080233;27;45474;-69
2021/08/23 02:37:46;;;;;;;;;5.00;4.75;;;;;19.82;100.00;102066.72;5099770;27;45287;-69
2021/08/23 02:40:13;;;;;;;;;5.00;5.00;;;;;19.81;100.00;102054.38;5087978;27;45390;-68
2021/08/23 02:42:39;;;;;;;;;6.25;6.00;;;;;19.76;100.00;102054.53;5079785;27;45334;-69
2021/08/23 02:45:05;;;;;;;;;5.00;3.75;;;;;19.76;100.00;102061.63;5090183;27;45517;-69
2021/08/23 02:47:35;;;;;;;;;6.75;6.00;;;;;19.76;100.00;102059.84;5083744;27;45488;-68
2021/08/23 02:50:01;;;;;;;;;5.25;5.25;;;;;19.74;100.00;102052.84;5088202;27;45504;-68
2021/08/23 02:52:26;;;;;;;;;3.25;3.25;;;;;19.77;100.00;102058.91;5099734;27;45201;-68
2021/08/23 02:54:51;;;;;;;;;4.25;4.00;;;;;19.76;100.00;102059.84;5086233;27;45428;-68
2021/08/23 02:57:17;;;;;;;;;7.00;6.00;;;;;19.70;100.00;102043.25;5099130;27;45446;-68
2021/08/23 02:59:43;;;;;;;;;5.00;4.50;;;;;19.69;100.00;102045.06;5081071;27;45372;-69
2021/08/23 03:02:08;;;;;;;;;5.75;5.75;;;;;19.73;100.00;102057.28;5090117;27;45370;-70
2021/08/23 03:04:33;;;;;;;;;6.75;5.00;;;;;19.70;100.00;102048.56;5083511;27;45399;-69
2021/08/23 03:06:59;;;;;;;;;5.25;5.25;;;;;19.69;100.00;102046.81;5079178;27;45589;-69
2021/08/23 03:09:24;;;;;;;;;5.00;3.75;;;;;19.72;100.00;102052.03;5079085;27;45280;-67
2021/08/23 03:11:50;;;;;;;;;6.75;6.25;;;;;19.69;100.00;102047.69;5079277;27;45324;-69
2021/08/23 03:14:15;;;;;;;;;5.00;5.00;;;;;19.75;100.00;102057.22;5091803;27;45295;-69
2021/08/23 03:16:40;;;;;;;;;5.75;5.25;;;;;19.70;100.00;102048.56;5080903;27;46598;-68
2021/08/23 03:19:06;;;;;;;;;6.75;6.75;;;;;19.66;100.00;102029.22;5089516;27;45314;-68
2021/08/23 03:21:31;;;;;;;;;6.25;5.75;;;;;19.77;100.00;102052.75;5083223;27;45497;-68
2021/08/23 03:23:57;;;;;;;;;6.75;4.25;;;;;19.78;100.00;102047.41;5095383;27;45340;-69
2021/08/23 03:26:25;;;;;;;;;6.50;4.75;;;;;19.83;100.00;102056.06;5078659;27;46299;-69
2021/08/23 03:28:52;;;;;;;;;7.00;5.75;;;;;19.77;100.00;102048.31;5078990;27;45245;-69
2021/08/23 03:31:17;;;;;;;;;5.25;5.00;;;;;19.78;100.00;102038.59;5091402;27;45421;-69
2021/08/23 03:33:43;;;;;;;;;6.75;6.00;;;;;19.87;100.00;102062.13;5084926;27;45386;-68
2021/08/23 03:36:09;;;;;;;;;7.25;6.00;;;;;19.85;100.00;102054.22;5079011;27;46331;-68
2021/08/23 03:38:34;;;;;;;;;5.50;5.50;;;;;19.84;100.00;102052.50;5091378;27;45253;-69
2021/08/23 03:40:59;;;;;;;;;8.00;6.25;;;;;19.84;100.00;102051.63;5094831;27;45302;-68
2021/08/23 03:43:25;;;;;;;;;7.50;6.00;;;;;19.86;100.00;102068.34;5079210;27;45315;-69
2021/08/23 03:45:50;;;;;;;;;6.00;5.00;;;;;19.78;100.00;102058.00;5077223;27;47079;-69
2021/08/23 03:48:16;;;;;;;;;5.75;4.25;;;;;19.83;100.00;102058.72;5086945;27;45382;-68
2021/08/23 03:50:41;;;;;;;;;5.50;4.00;;;;;19.84;100.00;102056.94;5084889;27;45409;-68
2021/08/23 03:53:06;;;;;;;;;6.75;5.00;;;;;19.85;100.00;102056.00;5093267;27;45491;-66
2021/08/23 03:55:32;;;;;;;;;7.50;6.00;;;;;19.84;100.00;102051.63;5090571;27;45432;-68
2021/08/23 03:57:58;;;;;;;;;6.00;6.00;;;;;19.86;100.00;102053.31;5100022;27;46148;-68
2021/08/23 04:00:26;;;;;;;;;4.75;4.75;;;;;19.88;100.00;102061.22;5088931;27;45161;-67
2021/08/23 04:02:51;;;;;;;;;5.25;5.00;;;;;19.84;100.00;102049.84;5078533;27;45417;-67
2021/08/23 04:05:16;;;;;;;;;6.75;5.50;;;;;19.83;100.00;102044.59;5078467;27;45264;-67
2021/08/23 04:07:42;;;;;;;;;8.00;5.25;;;;;19.83;100.00;102047.25;5078395;27;45314;-67
2021/08/23 04:10:08;;;;;;;;;9.00;6.25;;;;;19.89;100.00;102052.34;5083046;27;45555;-67
2021/08/23 04:12:33;;;;;;;;;8.00;5.25;;;;;19.85;100.00;102056.88;5086716;27;45374;-67
2021/08/23 04:15:00;;;;;;;;;6.75;6.00;;;;;19.91;100.00;102057.59;5092413;27;45322;-67
2021/08/23 04:17:26;;;;;;;;;6.50;6.50;;;;;19.88;100.00;102050.59;5104287;27;45916;-67
2021/08/23 04:19:51;;;;;;;;;5.25;5.00;;;;;19.81;100.00;102039.34;5081981;27;45319;-68
2021/08/23 04:22:16;;;;;;;;;7.00;5.00;;;;;19.96;100.00;102067.16;5077033;27;45396;-67
2021/08/23 04:24:42;;;;;;;;;5.75;5.75;;;;;19.95;100.00;102053.94;5078110;27;46404;-67
2021/08/23 04:27:07;;;;;;;;;8.25;6.00;;;;;19.94;100.00;102054.88;5076825;27;46003;-67
2021/08/23 04:29:33;;;;;;;;;6.00;6.00;;;;;20.00;100.00;102065.28;5077936;27;45418;-67
2021/08/23 04:31:59;;;;;;;;;8.00;5.75;;;;;20.02;100.00;102059.00;5078015;27;45392;-67
2021/08/23 04:34:24;;;;;;;;;7.00;6.25;;;;;20.04;100.00;102062.47;5077885;27;46142;-68
2021/08/23 04:36:50;;;;;;;;;6.00;6.00;;;;;19.92;100.00;102033.72;5078090;27;45322;-67
2021/08/23 04:39:18;;;;;;;;;8.75;6.00;;;;;20.09;100.00;102063.19;5091421;27;45177;-67
2021/08/23 04:41:43;;;;;;;;;7.75;7.00;;;;;20.08;100.00;102061.44;5078037;27;45362;-68
2021/08/23 04:44:09;;;;;;;;;7.00;6.50;;;;;20.09;100.00;102063.19;5091669;27;46421;-67
2021/08/23 04:46:38;;;;;;;;;6.00;5.25;;;;;20.05;100.00;102060.69;5086222;27;45458;-68
2021/08/23 04:49:04;;;;;;;;;9.25;8.00;;;;;20.11;100.00;102071.06;5097802;27;45388;-67
2021/08/23 04:51:30;;;;;;;;;7.00;6.00;;;;;20.11;100.00;102069.28;5078150;27;45366;-68
2021/08/23 04:53:56;;;;;;;;;6.25;5.75;;;;;20.13;100.00;102074.53;5090522;27;45438;-68
2021/08/23 04:56:24;;;;;;;;;8.75;7.50;;;;;20.11;100.00;102065.78;5097964;27;45371;-69
2021/08/23 04:58:52;;;;;;;;;9.00;8.00;;;;;20.10;100.00;102070.22;5086778;27;45284;-69
2021/08/23 05:01:18;;;;;;;;;7.00;6.00;;;;;20.17;100.00;102076.19;5077521;27;45455;-69
2021/08/23 05:03:43;;;;;;;;;10.00;9.00;;;;;20.17;100.00;102079.72;5077457;27;46178;-68
2021/08/23 05:06:08;;;;;;;;;8.50;8.00;;;;;20.11;100.00;102068.41;5092925;27;45422;-68
2021/08/23 05:08:34;;;;;;;;;8.25;6.50;;;;;20.15;100.00;102083.34;5090847;27;45300;-68
2021/08/23 05:11:00;;;;;;;;;9.00;8.25;;;;;20.18;100.00;102089.41;5077610;27;45174;-69
2021/08/23 05:13:25;;;;;;;;;8.00;6.00;;;;;20.15;100.00;102083.34;5089999;27;45408;-69
2021/08/23 05:15:51;;;;;;;;;9.00;7.00;;;;;20.17;100.00;102086.81;5077305;27;45412;-69
2021/08/23 05:18:16;;;;;;;;;9.50;8.00;;;;;20.18;100.00;102093.84;5078944;27;45400;-69
2021/08/23 05:20:42;;;;;;;;;13.25;7.50;;;;;20.19;100.00;102091.16;5097384;27;45212;-69
2021/08/23 05:23:07;;;;;;;;;10.25;9.00;;;;;20.17;100.00;102084.16;5082992;27;45418;-68
2021/08/23 05:25:34;;;;;;;;;9.75;8.00;;;;;20.19;100.00;102087.63;5090836;27;45295;-69
2021/08/23 05:28:04;;;;;;;;;9.75;8.25;;;;;20.18;100.00;102099.16;5090446;27;45442;-69
2021/08/23 05:30:29;;;;;;;;;10.00;9.00;;;;;20.13;100.00;102088.66;5078728;27;45379;-69
2021/08/23 05:32:56;;;;;;;;;9.25;8.00;;;;;20.14;100.00;102093.09;5089055;27;47736;-69
2021/08/23 05:35:22;;;;;;;;;8.25;8.00;;;;;20.19;100.00;102108.84;5077122;27;45230;-68
2021/08/23 05:37:49;;;;;;;;;9.75;9.00;;;;;20.15;100.00;102099.25;5077161;27;45615;-69
2021/08/23 05:40:16;;;;;;;;;11.00;10.00;;;;;20.16;100.00;102116.91;5089494;27;45337;-69
2021/08/23 05:42:42;;;;;;;;;10.00;9.25;;;;;20.15;100.00;102112.50;5092903;27;45444;-70
2021/08/23 05:45:08;;;;;;;;;10.25;10.00;;;;;20.11;100.00;102111.72;5087118;27;45379;-68
2021/08/23 05:47:33;;;;;;;;;9.00;8.00;;;;;20.12;100.00;102113.44;5080851;27;45438;-68
2021/08/23 05:49:59;;;;;;;;;9.00;8.25;;;;;19.98;100.00;102096.28;5077285;27;45342;-68
2021/08/23 05:52:24;;;;;;;;;12.25;8.50;;;;;20.07;100.00;102111.88;5090887;27;46591;-67
2021/08/23 05:54:50;;;;;;;;;9.50;9.00;;;;;20.09;100.00;102118.84;5082930;27;45420;-67
2021/08/23 05:57:15;;;;;;;;;9.00;9.00;;;;;20.09;100.00;102118.00;5097273;27;45817;-69
2021/08/23 05:59:41;;;;;;;;;9.00;9.00;;;;;20.12;100.00;102123.19;5078686;27;45300;-67
2021/08/23 06:02:06;;;;;;;;;12.50;9.75;;;;;20.13;100.00;102120.50;5102419;27;47298;-68
2021/08/23 06:04:32;;;;;;;;;11.25;9.75;;;;;20.14;100.00;102124.00;5080538;27;45159;-68
2021/08/23 06:06:59;;;;;;;;;10.00;8.50;;;;;20.13;100.00;102124.94;5084823;27;45308;-68
2021/08/23 06:09:24;;;;;;;;;9.25;8.50;;;;;20.01;100.00;102106.78;5097494;27;45399;-68
2021/08/23 06:11:50;;;;;;;;;12.50;10.75;;;;;20.10;100.00;102128.53;5090763;27;46668;-67
2021/08/23 06:14:16;;;;;;;;;15.25;13.50;;;;;20.13;100.00;102132.88;5076607;27;45474;-67
2021/08/23 06:16:41;;;;;;;;;12.00;10.00;;;;;20.13;100.00;102136.41;5090664;27;45476;-68
2021/08/23 06:19:06;;;;;;;;;15.25;12.50;;;;;20.14;100.00;102124.00;5087038;27;45413;-69
2021/08/23 06:21:34;;;;;;;;;10.00;9.00;;;;;20.23;100.00;102142.31;5080255;27;45318;-69
2021/08/23 06:23:59;;;;;;;;;13.25;11.75;;;;;20.24;100.00;102140.50;5076515;27;45590;-68
2021/08/23 06:26:27;;;;;;;;;13.50;12.25;;;;;20.33;100.00;102138.41;5090810;27;45362;-68
2021/08/23 06:28:53;;;;;;;;;7.75;7.25;;;;;20.32;100.00;102133.16;5096954;27;45528;-67
2021/08/23 06:31:18;;;;;;;;;9.50;9.25;;;;;20.41;100.00;102133.78;5083852;27;45570;-67
2021/08/23 06:33:44;;;;;;;;;11.00;10.25;;;;;20.43;100.00;102137.25;5078802;27;45391;-68
2021/08/23 06:36:09;;;;;;;;;13.25;11.00;;;;;20.48;100.00;102140.59;5079846;27;45453;-68
2021/08/23 06:38:38;;;;;;;;;12.00;10.25;;;;;20.55;100.00;102141.25;5078534;27;45422;-68
2021/08/23 06:41:03;;;;;;;;;12.50;11.00;;;;;20.58;100.00;102127.03;5079532;27;46465;-69
2021/08/23 06:43:28;;;;;;;;;13.00;11.00;;;;;20.66;100.00;102125.88;5085721;27;45297;-68
2021/08/23 06:45:54;;;;;;;;;12.00;11.75;;;;;20.72;100.00;102135.41;5112144;27;45269;-68
2021/08/23 06:48:19;;;;;;;;;9.25;8.25;;;;;20.82;100.00;102138.59;5091708;27;45372;-68
2021/08/23 06:50:44;;;;;;;;;16.75;13.50;;;;;20.88;100.00;102138.41;5093644;27;46377;-68
2021/08/23 06:53:11;;;;;;;;;13.25;13.00;;;;;20.90;100.00;102137.41;5086116;27;45269;-68
2021/08/23 06:55:37;;;;;;;;;10.75;10.25;;;;;20.94;100.00;102133.72;5087196;27;45327;-69
2021/08/23 06:58:03;;;;;;;;;16.25;11.25;;;;;20.99;100.00;102133.56;5079571;27;45240;-69
2021/08/23 07:00:28;;;;;;;;;10.75;10.25;;;;;20.99;100.00;102137.09;5095035;27;47031;-68
2021/08/23 07:03:02;;;;;;;;;13.75;11.50;;;;;21.05;100.00;102141.34;5093196;27;45585;-69
2021/08/23 07:05:27;;;;;;;;;10.50;10.50;;;;;21.14;100.00;102143.66;5105799;27;45371;-69
2021/08/23 07:07:52;;;;;;;;;12.00;11.00;;;;;21.23;100.00;102145.97;5079405;27;45243;-68
2021/08/23 07:10:18;;;;;;;;;11.50;11.00;;;;;21.31;100.00;102143.94;5086739;27;46533;-68
2021/08/23 07:12:43;;;;;;;;;11.00;10.00;;;;;21.38;100.00;102145.44;5099449;27;45307;-69
2021/08/23 07:15:09;;;;;;;;;11.50;10.50;;;;;21.47;100.00;102149.53;5098100;27;45452;-68
2021/08/23 07:17:35;;;;;;;;;12.25;11.50;;;;;21.51;100.00;102129.94;5088144;27;45500;-68
2021/08/23 07:20:02;;;;;;;;;11.75;9.75;;;;;21.63;100.00;102145.38;5082255;27;45690;-69
2021/08/23 07:22:27;;;;;;;;;16.00;13.00;;;;;21.66;100.00;102139.09;5089821;27;45295;-69
2021/08/23 07:24:53;;;;;;;;;12.50;10.50;;;;;21.74;100.00;102144.13;5079104;27;45254;-68
2021/08/23 07:27:19;;;;;;;;;12.00;10.75;;;;;21.84;100.00;102140.19;5079236;27;45398;-68
2021/08/23 07:29:45;;;;;;;;;14.25;12.25;;;;;21.97;100.00;102144.97;5078591;27;45414;-68
2021/08/23 07:32:10;;;;;;;;;11.25;10.25;;;;;22.06;100.00;102137.56;5079885;27;45509;-69
2021/08/23 07:34:36;;;;;;;;;13.75;12.00;;;;;22.18;100.00;102131.75;5091883;27;45277;-68
2021/08/23 07:37:01;;;;;;;;;12.25;11.75;;;;;22.29;100.00;102137.50;5079055;27;45421;-68
2021/08/23 07:39:27;;;;;;;;;14.75;11.25;;;;;22.44;100.00;102133.38;5092683;27;45772;-69
2021/08/23 07:41:52;;;;;;;;;11.00;8.25;;;;;22.53;100.00;102135.63;5078749;27;45372;-68
2021/08/23 07:44:17;;;;;;;;;8.50;8.25;;;;;22.63;100.00;102134.28;5094782;27;45305;-67
2021/08/23 07:46:43;;;;;;;;;11.75;11.50;;;;;22.69;100.00;102133.19;5088501;27;45218;-68
2021/08/23 07:49:08;;;;;;;;;11.50;11.00;;;;;22.82;100.00;102134.41;5092744;27;45433;-68
2021/08/23 07:51:34;;;;;;;;;12.50;12.25;;;;;22.92;100.00;102133.97;5086219;27;45472;-67
2021/08/23 07:54:00;;;;;;;;;10.25;9.75;;;;;23.04;100.00;102135.22;5085557;27;45362;-68
2021/08/23 07:56:26;;;;;;;;;13.50;12.75;;;;;23.16;100.00;102126.69;5093461;27;45400;-69
2021/08/23 07:58:51;;;;;;;;;9.25;9.00;;;;;23.40;100.00;102132.72;5078222;27;45726;-68
2021/08/23 08:01:16;;;;;;;;;10.50;8.50;;;;;23.60;100.00;102134.50;5078361;27;45444;-68
2021/08/23 08:03:51;;;;;;;;;10.25;8.50;;;;;23.73;100.00;102129.44;5078413;27;45256;-68
2021/08/23 08:06:18;;;;;;;;;10.00;9.00;;;;;23.94;100.00;102135.56;5092816;27;45459;-68
2021/08/23 08:08:43;;;;;;;;;9.50;9.25;;;;;24.17;100.00;102139.78;5089943;27;47632;-68
2021/08/23 08:11:09;;;;;;;;;13.00;11.75;;;;;24.36;100.00;102132.63;5078175;27;45475;-68
2021/08/23 08:13:35;;;;;;;;;9.75;9.25;;;;;24.53;100.00;102129.97;5078358;27;45278;-69
2021/08/23 08:16:01;;;;;;;;;11.75;10.75;;;;;24.78;100.00;102140.28;5091111;27;45570;-69
2021/08/23 08:18:26;;;;;;;;;8.25;7.50;;;;;24.86;100.00;102140.72;5093598;27;46443;-69
2021/08/23 08:20:52;;;;;;;;;10.50;10.25;;;;;24.91;100.00;102137.84;5076235;27;45500;-69
2021/08/23 08:23:17;;;;;;;;;9.25;9.00;;;;;25.01;100.00;102148.00;5080196;27;45419;-68
2021/08/23 08:25:43;;;;;;;;;9.00;8.00;;;;;25.13;100.00;102146.50;5090362;27;45395;-68
2021/08/23 08:28:10;;;;;;;;;10.25;10.00;;;;;25.17;100.00;102142.72;5090715;27;47373;-68
2021/08/23 08:30:35;;;;;;;;;9.25;9.00;;;;;25.19;100.00;102139.97;5091895;27;45330;-69
2021/08/23 08:33:01;;;;;;;;;10.25;9.75;;;;;25.12;100.00;102135.88;5086619;27;45447;-69
2021/08/23 08:35:26;;;;;;;;;9.00;8.25;;;;;25.10;100.00;102130.59;5097988;27;45409;-69
2021/08/23 08:37:54;;;;;;;;;9.75;9.75;;;;;25.24;100.00;102140.56;5084420;27;45427;-69
2021/08/23 08:40:20;;;;;;;;;11.25;10.00;;;;;25.34;100.00;102129.28;5084917;27;45516;-68
2021/08/23 08:42:46;;;;;;;;;11.50;9.25;;;;;25.46;100.00;102135.78;5092085;27;45417;-69
2021/08/23 08:45:14;;;;;;;;;8.50;8.00;;;;;25.56;100.00;102125.44;5078267;27;45308;-68
2021/08/23 08:47:42;;;;;;;;;11.00;9.00;;;;;25.68;100.00;102129.31;5094710;27;45593;-69
2021/08/23 08:50:10;;;;;;;;;10.75;9.00;;;;;25.89;100.00;102126.28;5097944;27;45631;-68
2021/08/23 08:52:37;;;;;;;;;8.75;7.25;;;;;26.17;100.00;102128.25;5098077;27;45318;-68
2021/08/23 08:55:03;;;;;;;;;9.00;8.50;;;;;26.41;100.00;102130.47;5089468;27;45431;-69
2021/08/23 08:57:28;;;;;;;;;9.00;7.25;;;;;26.64;100.00;102131.81;5077520;27;46101;-68
2021/08/23 08:59:54;;;;;;;;;9.00;9.00;;;;;26.92;100.00;102131.00;5077393;27;45421;-69
2021/08/23 09:02:19;;;;;;;;;9.00;8.75;;;;;27.20;100.00;102144.50;5093063;27;45443;-68
2021/08/23 09:04:45;;;;;;;;;8.25;7.75;;;;;27.31;100.00;102144.66;5077552;27;45352;-68
2021/08/23 09:07:11;;;;;;;;;9.50;7.25;;;;;27.25;100.00;102145.06;5086959;27;45409;-68
2021/08/23 09:09:37;;;;;;;;;10.25;9.25;;;;;27.14;100.00;102150.22;5081515;27;45407;-68
2021/08/23 09:12:05;;;;;;;;;7.25;6.50;;;;;26.93;100.00;102151.47;5083857;27;45424;-68
2021/08/23 09:14:32;;;;;;;;;9.75;8.25;;;;;26.65;100.00;102146.91;5083454;27;45174;-67
2021/08/23 09:17:05;;;;;;;;;8.75;8.75;;;;;26.41;100.00;102154.59;5077409;27;45341;-69
2021/08/23 09:19:34;;;;;;;;;7.75;7.75;;;;;26.16;100.00;102152.44;5077348;27;45528;-69
2021/08/23 09:22:03;;;;;;;;;17.50;14.00;;;;;25.85;100.00;102154.19;5091427;27;45358;-69
2021/08/23 09:24:34;;;;;;;;;9.00;9.00;;;;;25.60;100.00;102143.06;5077541;27;45423;-68
2021/08/23 09:27:05;;;;;;;;;12.50;11.75;;;;;25.56;100.00;102154.88;5076945;27;47113;-68
2021/08/23 09:29:30;;;;;;;;;10.25;9.00;;;;;25.56;100.00;102155.72;5088670;27;45240;-68
2021/08/23 09:31:59;;;;;;;;;9.00;9.00;;;;;25.51;100.00;102154.25;5079512;27;45534;-69
2021/08/23 09:34:26;;;;;;;;;10.00;8.50;;;;;25.45;100.00;102143.91;5083592;27;45445;-69
2021/08/23 09:37:00;;;;;;;;;8.00;8.00;;;;;25.41;100.00;102161.06;5085143;27;45420;-68
2021/08/23 09:39:27;;;;;;;;;11.75;9.00;;;;;25.38;100.00;102154.06;5091046;27;45419;-68
2021/08/23 09:42:05;;;;;;;;;9.00;7.25;;;;;25.31;100.00;102161.53;5076907;27;45521;-69
2021/08/23 09:44:38;;;;;;;;;7.75;7.75;;;;;25.15;100.00;102146.41;5082324;27;45373;-69
2021/08/23 09:47:04;;;;;;;;;8.00;7.00;;;;;25.11;100.00;102151.03;5085326;27;46303;-69
2021/08/23 09:49:36;;;;;;;;;10.00;8.00;;;;;25.08;100.00;102163.69;5080974;27;46335;-68
2021/08/23 09:52:01;;;;;;;;;8.00;7.00;;;;;24.94;100.00;102151.91;5086207;27;45382;-68
2021/08/23 09:54:29;;;;;;;;;9.00;8.00;;;;;24.86;100.00;102151.41;5079964;27;45519;-69
2021/08/23 09:56:54;;;;;;;;;7.75;7.75;;;;;24.90;100.00;102163.72;5096996;27;46604;-68
2021/08/23 09:59:25;;;;;;;;;7.50;7.00;;;;;24.89;100.00;102159.28;5096984;27;45353;-69
2021/08/23 10:01:53;;;;;;;;;8.75;7.00;;;;;25.14;100.00;102163.41;5089418;27;45380;-68
2021/08/23 10:04:20;;;;;;;;;8.50;7.00;;;;;25.31;100.00;102153.53;5076913;27;45329;-67
2021/08/23 10:06:47;;;;;;;;;7.75;7.50;;;;;25.58;100.00;102163.69;5084034;27;46845;-68
2021/08/23 10:09:21;;;;;;;;;6.25;6.25;;;;;25.69;100.00;102155.09;5088036;27;45316;-68
2021/08/23 10:11:48;;;;;;;;;8.00;7.25;;;;;25.79;100.00;102154.50;5080224;27;45342;-68
2021/08/23 10:14:13;;;;;;;;;9.00;7.00;;;;;25.91;100.00;102155.63;5080609;27;45357;-69
2021/08/23 10:16:45;;;;;;;;;6.75;6.25;;;;;25.97;100.00;102154.41;5079965;27;46211;-68
2021/08/23 10:19:11;;;;;;;;;11.50;8.75;;;;;25.95;100.00;102168.75;5080288;27;45569;-68
2021/08/23 10:21:39;;;;;;;;;7.25;7.25;;;;;25.86;100.00;102160.41;5094464;27;45438;-68
2021/08/23 10:24:07;;;;;;;;;12.50;10.00;;;;;25.68;100.00;102145.34;5080587;27;45482;-68
2021/08/23 10:26:41;;;;;;;;;6.50;6.25;;;;;25.59;100.00;102165.44;5095406;27;46495;-68
2021/08/23 10:29:09;;;;;;;;;8.50;7.75;;;;;25.40;100.00;102154.00;5088368;27;45323;-68
2021/08/23 10:31:36;;;;;;;;;5.75;5.75;;;;;25.22;100.00;102151.34;5085540;27;45402;-68
2021/08/23 10:34:10;;;;;;;;;7.00;6.00;;;;;25.07;100.00;102148.63;5097243;27;45371;-68
2021/08/23 10:36:39;;;;;;;;;6.50;6.00;;;;;24.91;100.00;102152.06;5100274;27;46321;-68
2021/08/23 10:39:05;;;;;;;;;8.50;7.00;;;;;24.77;100.00;102159.06;5083119;27;45604;-68
2021/08/23 10:41:31;;;;;;;;;5.00;5.00;;;;;24.64;100.00;102157.00;5088463;27;45318;-68
2021/08/23 10:44:00;;;;;;;;;5.75;5.25;;;;;24.47;100.00;102159.69;5085653;27;45429;-68
2021/08/23 10:46:36;;;;;;;;;7.00;6.00;;;;;24.37;100.00;102158.38;5079486;27;45411;-69
2021/08/23 10:49:16;;;;;;;;;8.00;7.00;;;;;24.17;100.00;102159.31;5079834;27;45646;-68
2021/08/23 10:51:44;;;;;;;;;9.50;7.75;;;;;24.09;100.00;102169.50;5100103;27;45503;-68
2021/08/23 10:54:27;;;;;;;;;8.00;7.00;;;;;23.99;100.00;102165.53;5099550;27;45502;-68
2021/08/23 10:57:18;;;;;;;;;7.00;7.00;;;;;23.93;100.00;102158.69;5088612;27;45635;-68
2021/08/23 10:59:48;;;;;;;;;6.00;6.00;;;;;23.91;100.00;102155.25;5085360;27;45482;-67
2021/08/23 11:02:20;;;;;;;;;7.25;7.00;;;;;23.94;100.00;102170.25;5104471;27;45251;-68
2021/08/23 11:04:58;;;;;;;;;7.25;7.25;;;;;23.90;100.00;102156.19;5079319;27;45319;-67
2021/08/23 11:07:29;;;;;;;;;8.75;7.75;;;;;23.94;100.00;102160.44;5079299;27;45391;-68
2021/08/23 11:10:11;;;;;;;;;6.00;6.00;;;;;23.90;100.00;102152.66;5093527;27;45642;-68
2021/08/23 11:13:16;;;;;;;;;7.25;7.00;;;;;23.95;100.00;102153.28;5107807;27;45329;-68